createdAt,value
2018-09-25T00:00:06.909Z,0.93
2018-09-25T00:02:48.560Z,0.83
2018-09-25T00:05:30.415Z,0.90
2018-09-25T00:08:12.227Z,1.10
2018-09-25T00:10:53.949Z,0.83
2018-09-25T00:13:35.599Z,0.80
2018-09-25T00:16:17.354Z,1.50
2018-09-25T00:18:58.818Z,1.17
2018-09-25T00:21:40.340Z,1.33
2018-09-25T00:24:21.941Z,0.80
2018-09-25T00:27:03.599Z,0.90
2018-09-25T00:29:45.218Z,1.30
2018-09-25T00:32:27.005Z,1.13
2018-09-25T00:35:08.768Z,1.07
2018-09-25T00:37:50.339Z,0.97
2018-09-25T00:40:32.006Z,1.30
2018-09-25T00:43:13.834Z,1.50
2018-09-25T00:45:55.616Z,0.90
2018-09-25T00:48:37.355Z,1.63
2018-09-25T00:51:19.013Z,0.87
2018-09-25T00:54:00.660Z,0.90
2018-09-25T00:56:42.366Z,1.20
2018-09-25T00:59:24.217Z,0.83
2018-09-25T01:02:06.090Z,1.00
2018-09-25T01:04:47.608Z,1.47
2018-09-25T01:07:29.294Z,1.33
2018-09-25T01:10:11.131Z,1.00
2018-09-25T01:12:52.775Z,2.13
2018-09-25T01:15:34.523Z,1.10
2018-09-25T01:18:16.183Z,1.37
2018-09-25T01:20:57.755Z,0.80
2018-09-25T01:23:39.718Z,1.13
2018-09-25T01:26:21.429Z,0.90
2018-09-25T01:29:03.148Z,1.00
2018-09-25T01:31:44.791Z,1.20
2018-09-25T01:34:26.507Z,1.77
2018-09-25T01:37:08.275Z,1.17
2018-09-25T01:39:50.101Z,0.90
2018-09-25T01:42:31.816Z,0.90
2018-09-25T01:45:13.564Z,0.90
2018-09-25T01:47:55.708Z,0.80
2018-09-25T01:50:37.258Z,1.17
2018-09-25T01:53:18.895Z,1.17
2018-09-25T01:56:00.440Z,1.43
2018-09-25T01:58:42.659Z,1.13
2018-09-25T02:01:24.234Z,1.13
2018-09-25T02:04:05.839Z,0.93
2018-09-25T02:06:47.450Z,1.20
2018-09-25T02:09:29.112Z,1.17
2018-09-25T02:12:10.765Z,1.63
2018-09-25T02:14:52.475Z,1.20
2018-09-25T02:17:34.148Z,0.90
2018-09-25T02:20:15.967Z,1.20
2018-09-25T02:22:57.736Z,1.00
2018-09-25T02:25:39.403Z,1.47
2018-09-25T02:28:21.027Z,0.80
2018-09-25T02:31:02.914Z,1.10
2018-09-25T02:33:44.670Z,1.27
2018-09-25T02:36:26.375Z,1.00
2018-09-25T02:39:08.089Z,1.20
2018-09-25T02:41:49.828Z,0.87
2018-09-25T02:44:31.450Z,1.30
2018-09-25T02:47:13.150Z,1.27
2018-09-25T02:49:55.716Z,1.40
2018-09-25T02:52:37.364Z,1.00
2018-09-25T02:55:19.037Z,1.00
2018-09-25T02:58:00.747Z,1.10
2018-09-25T03:00:42.383Z,1.47
2018-09-25T03:03:24.067Z,1.43
2018-09-25T03:06:05.884Z,1.10
2018-09-25T03:08:47.661Z,1.10
2018-09-25T03:11:29.343Z,1.63
2018-09-25T03:14:10.919Z,1.10
2018-09-25T03:16:53.025Z,1.37
2018-09-25T03:19:34.701Z,1.63
2018-09-25T03:22:16.434Z,1.10
2018-09-25T03:24:58.332Z,1.17
2018-09-25T03:27:40.220Z,1.10
2018-09-25T03:30:21.740Z,1.47
2018-09-25T03:33:03.361Z,1.50
2018-09-25T03:35:44.893Z,1.03
2018-09-25T03:38:26.550Z,1.20
2018-09-25T03:41:08.347Z,1.33
2018-09-25T03:43:49.989Z,2.00
2018-09-25T03:46:31.593Z,1.47
2018-09-25T03:49:13.311Z,1.60
2018-09-25T03:51:55.620Z,2.20
2018-09-25T03:54:37.480Z,1.70
2018-09-25T03:57:19.230Z,1.40
2018-09-25T04:00:00.720Z,1.60
2018-09-25T04:02:42.398Z,1.23
2018-09-25T04:05:24.122Z,1.60
2018-09-25T04:08:05.951Z,1.83
2018-09-25T04:10:47.697Z,1.90
2018-09-25T04:13:29.335Z,2.00
2018-09-25T04:16:10.935Z,2.30
2018-09-25T04:18:52.636Z,1.80
2018-09-25T04:21:33.969Z,2.30
2018-09-25T04:24:15.560Z,1.83
2018-09-25T04:26:57.144Z,2.00
2018-09-25T04:29:38.743Z,1.77
2018-09-25T04:32:20.548Z,2.07
2018-09-25T04:35:02.204Z,1.70
2018-09-25T04:37:43.827Z,1.90
2018-09-25T04:40:25.623Z,1.43
2018-09-25T04:43:07.273Z,1.53
2018-09-25T04:45:48.900Z,1.33
2018-09-25T04:48:30.720Z,2.53
2018-09-25T04:51:12.356Z,1.97
2018-09-25T04:53:54.079Z,1.40
2018-09-25T04:56:35.695Z,2.00
2018-09-25T04:59:17.476Z,1.40
2018-09-25T05:01:58.953Z,1.97
2018-09-25T05:04:40.671Z,2.10
2018-09-25T05:07:22.375Z,1.90
2018-09-25T05:10:04.067Z,1.83
2018-09-25T05:12:45.953Z,1.80
2018-09-25T05:15:32.481Z,2.27
2018-09-25T05:18:14.054Z,2.43
2018-09-25T05:20:55.723Z,2.00
2018-09-25T05:23:37.208Z,2.03
2018-09-25T05:26:18.994Z,4.43
2018-09-25T05:29:01.036Z,10.30
2018-09-25T05:31:42.785Z,7.23
2018-09-25T05:34:24.707Z,5.33
2018-09-25T05:37:08.656Z,2.90
2018-09-25T05:39:50.537Z,2.60
2018-09-25T05:42:32.352Z,1.67
2018-09-25T05:45:14.052Z,2.60
2018-09-25T05:47:55.694Z,2.27
2018-09-25T05:50:37.395Z,2.40
2018-09-25T05:53:19.133Z,1.53
2018-09-25T05:56:00.623Z,2.40
2018-09-25T05:58:42.317Z,2.60
2018-09-25T06:01:24.391Z,1.73
2018-09-25T06:04:06.664Z,1.90
2018-09-25T06:06:48.525Z,1.70
2018-09-25T06:09:30.397Z,1.80
2018-09-25T06:12:12.341Z,2.27
2018-09-25T06:14:53.862Z,2.27
2018-09-25T06:17:35.558Z,3.13
2018-09-25T06:20:18.759Z,2.43
2018-09-25T06:23:00.458Z,3.00
2018-09-25T06:25:43.019Z,3.20
2018-09-25T06:28:24.519Z,3.50
2018-09-25T06:31:06.158Z,3.47
2018-09-25T06:56:06.550Z,3.50
2018-09-25T06:58:55.197Z,4.57
2018-09-25T07:01:36.785Z,3.97
2018-09-25T07:04:18.463Z,4.47
2018-09-25T07:07:00.268Z,3.70
2018-09-25T07:09:42.020Z,3.47
2018-09-25T07:12:23.564Z,2.60
2018-09-25T07:15:05.173Z,3.77
2018-09-25T07:17:46.789Z,3.30
2018-09-25T07:20:28.365Z,2.93
2018-09-25T07:23:09.974Z,3.20
2018-09-25T07:25:51.578Z,2.63
2018-09-25T07:28:33.347Z,3.20
2018-09-25T07:31:15.157Z,2.33
2018-09-25T07:33:56.737Z,2.13
2018-09-25T07:36:38.375Z,2.50
2018-09-25T07:39:20.016Z,2.10
2018-09-25T07:42:01.650Z,3.00
2018-09-25T07:44:43.379Z,2.60
2018-09-25T07:47:24.779Z,3.10
2018-09-25T07:50:06.399Z,2.40
2018-09-25T07:52:47.961Z,2.73
2018-09-25T07:55:29.583Z,2.10
2018-09-25T07:58:11.209Z,2.30
2018-09-25T08:00:52.838Z,2.87
2018-09-25T08:03:34.514Z,2.10
2018-09-25T08:06:16.152Z,2.60
2018-09-25T08:08:57.820Z,2.57
2018-09-25T08:11:39.386Z,2.90
2018-09-25T08:14:21.077Z,2.40
2018-09-25T08:17:02.660Z,2.50
2018-09-25T08:19:44.251Z,2.87
2018-09-25T08:22:25.933Z,2.40
2018-09-25T08:25:07.642Z,1.90
2018-09-25T08:27:49.205Z,2.33
2018-09-25T08:30:30.768Z,1.83
2018-09-25T08:33:12.581Z,2.00
2018-09-25T08:35:54.157Z,1.80
2018-09-25T08:38:36.795Z,1.70
2018-09-25T08:41:18.245Z,2.63
2018-09-25T08:43:59.943Z,2.43
2018-09-25T08:46:41.440Z,2.27
2018-09-25T08:49:22.904Z,2.00
2018-09-25T08:52:04.590Z,2.47
2018-09-25T08:54:46.189Z,2.20
2018-09-25T08:57:27.739Z,1.93
2018-09-25T09:00:09.448Z,1.93
2018-09-25T09:02:51.132Z,1.90
2018-09-25T09:05:32.797Z,2.30
2018-09-25T09:08:15.116Z,2.73
2018-09-25T09:10:56.693Z,2.50
2018-09-25T09:13:38.436Z,2.20
2018-09-25T09:16:21.158Z,2.83
2018-09-25T09:19:02.762Z,2.30
2018-09-25T09:21:44.332Z,2.30
2018-09-25T09:24:26.130Z,2.17
2018-09-25T09:27:07.628Z,2.50
2018-09-25T09:29:49.358Z,2.20
2018-09-25T09:32:30.922Z,2.27
2018-09-25T09:35:13.014Z,2.27
2018-09-25T09:37:54.609Z,2.07
2018-09-25T09:40:36.542Z,2.10
2018-09-25T09:43:18.048Z,2.50
2018-09-25T09:45:59.940Z,2.10
2018-09-25T09:48:41.571Z,1.60
2018-09-25T09:51:23.051Z,1.83
2018-09-25T09:54:04.846Z,1.90
2018-09-25T09:56:46.655Z,2.03
2018-09-25T09:59:28.332Z,2.30
2018-09-25T10:02:10.034Z,2.37
2018-09-25T10:04:51.919Z,2.10
2018-09-25T10:07:33.584Z,1.70
2018-09-25T10:10:15.147Z,1.60
2018-09-25T10:12:56.845Z,1.50
2018-09-25T10:15:38.533Z,1.87
2018-09-25T10:18:20.180Z,1.23
2018-09-25T10:21:01.631Z,1.10
2018-09-25T10:23:43.260Z,1.40
2018-09-25T10:26:25.820Z,1.57
2018-09-25T10:29:07.616Z,0.80
2018-09-25T10:31:49.235Z,1.43
2018-09-25T10:34:31.288Z,1.37
2018-09-25T10:37:13.015Z,1.00
2018-09-25T10:39:54.521Z,0.73
2018-09-25T10:42:36.557Z,1.03
2018-09-25T10:45:18.385Z,0.90
2018-09-25T10:48:00.315Z,1.10
2018-09-25T10:50:41.894Z,1.07
2018-09-25T10:53:24.046Z,0.77
2018-09-25T10:56:06.601Z,0.90
2018-09-25T10:58:48.166Z,0.50
2018-09-25T11:01:29.800Z,1.43
2018-09-25T11:04:11.132Z,1.00
2018-09-25T11:06:52.695Z,0.70
2018-09-25T11:09:34.305Z,0.80
2018-09-25T11:12:16.200Z,0.60
2018-09-25T11:14:57.885Z,0.53
2018-09-25T11:17:39.476Z,0.40
2018-09-25T11:20:21.140Z,0.63
2018-09-25T11:23:02.779Z,0.63
2018-09-25T11:25:44.391Z,1.00
2018-09-25T11:28:27.240Z,0.90
2018-09-25T11:31:09.301Z,1.37
2018-09-25T11:33:51.405Z,0.60
2018-09-25T11:36:33.292Z,0.63
2018-09-25T11:39:15.312Z,0.83
2018-09-25T11:41:56.896Z,0.70
2018-09-25T11:44:38.454Z,0.80
2018-09-25T11:47:19.904Z,0.83
2018-09-25T11:50:01.763Z,1.17
2018-09-25T11:52:43.761Z,0.93
2018-09-25T11:55:25.397Z,0.77
2018-09-25T11:58:06.852Z,0.70
2018-09-25T12:00:49.059Z,0.50
2018-09-25T12:03:30.620Z,0.77
2018-09-25T12:06:12.074Z,0.50
2018-09-25T12:08:53.623Z,0.50
2018-09-25T12:11:35.370Z,0.60
2018-09-25T12:14:17.186Z,0.63
2018-09-25T12:16:58.894Z,0.70
2018-09-25T12:19:40.841Z,0.80
2018-09-25T12:22:22.212Z,0.90
2018-09-25T12:25:04.034Z,2.97
2018-09-25T12:27:45.883Z,1.97
2018-09-25T12:30:27.302Z,4.50
2018-09-25T12:33:08.995Z,1.07
2018-09-25T12:35:50.732Z,1.10
2018-09-25T12:38:32.410Z,0.57
2018-09-25T12:41:15.009Z,0.70
2018-09-25T12:43:56.505Z,0.80
2018-09-25T12:46:38.083Z,1.00
2018-09-25T12:49:19.676Z,0.90
2018-09-25T12:52:01.359Z,0.60
2018-09-25T12:54:42.947Z,0.80
2018-09-25T12:57:24.521Z,0.73
2018-09-25T13:00:06.065Z,1.60
2018-09-25T13:02:47.703Z,1.10
2018-09-25T13:05:29.356Z,0.60
2018-09-25T13:08:11.494Z,0.80
2018-09-25T13:10:53.483Z,0.90
2018-09-25T13:13:35.312Z,0.53
2018-09-25T13:16:17.022Z,0.60
2018-09-25T13:18:58.641Z,0.80
2018-09-25T13:21:40.319Z,0.60
2018-09-25T13:24:21.770Z,0.80
2018-09-25T13:27:03.545Z,0.80
2018-09-25T13:29:45.062Z,0.50
2018-09-25T13:32:26.847Z,0.73
2018-09-25T13:35:08.321Z,0.77
2018-09-25T13:37:49.980Z,0.97
2018-09-25T13:40:31.796Z,0.67
2018-09-25T13:43:13.495Z,0.70
2018-09-25T13:45:55.030Z,0.90
2018-09-25T13:48:36.568Z,0.60
2018-09-25T13:51:18.164Z,0.70
2018-09-25T13:53:59.670Z,0.70
2018-09-25T13:56:42.430Z,3.23
2018-09-25T13:59:24.224Z,1.80
2018-09-25T14:02:06.038Z,0.63
2018-09-25T14:04:47.621Z,0.80
2018-09-25T14:07:29.213Z,0.60
2018-09-25T14:10:11.175Z,0.73
2018-09-25T14:12:52.899Z,0.80
2018-09-25T14:15:34.688Z,0.90
2018-09-25T14:18:17.000Z,0.70
2018-09-25T14:20:58.627Z,0.50
2018-09-25T14:23:40.249Z,0.60
2018-09-25T14:26:22.068Z,0.87
2018-09-25T14:29:04.226Z,1.00
2018-09-25T14:31:45.895Z,0.60
2018-09-25T14:34:27.512Z,0.93
2018-09-25T14:37:09.214Z,0.73
2018-09-25T14:39:51.009Z,0.87
2018-09-25T14:42:32.768Z,0.60
2018-09-25T14:45:14.498Z,0.70
2018-09-25T14:47:56.196Z,0.90
2018-09-25T14:50:37.827Z,0.60
2018-09-25T14:53:19.395Z,1.30
2018-09-25T14:56:01.224Z,1.10
2018-09-25T14:58:42.915Z,1.77
2018-09-25T15:01:24.671Z,0.87
2018-09-25T15:04:06.528Z,1.03
2018-09-25T15:06:48.142Z,0.93
2018-09-25T15:09:29.850Z,1.10
2018-09-25T15:12:11.452Z,0.90
2018-09-25T15:14:53.053Z,0.60
2018-09-25T15:17:34.496Z,1.37
2018-09-25T15:20:16.464Z,0.93
2018-09-25T15:22:58.033Z,0.80
2018-09-25T15:25:39.643Z,1.23
2018-09-25T15:28:21.202Z,0.70
2018-09-25T15:31:02.767Z,0.70
2018-09-25T15:33:44.535Z,0.80
2018-09-25T15:36:26.343Z,0.60
2018-09-25T15:39:07.888Z,0.70
2018-09-25T15:41:49.756Z,0.80
2018-09-25T15:44:32.138Z,0.50
2018-09-25T15:47:13.996Z,0.67
2018-09-25T15:49:55.551Z,0.50
2018-09-25T15:52:37.594Z,1.10
2018-09-25T15:55:19.033Z,0.97
2018-09-25T15:58:00.640Z,0.70
2018-09-25T16:00:43.324Z,1.00
2018-09-25T16:03:24.924Z,0.80
2018-09-25T16:06:07.114Z,1.00
2018-09-25T16:08:48.778Z,0.60
2018-09-25T16:11:30.471Z,0.83
2018-09-25T16:14:12.376Z,1.00
2018-09-25T16:16:53.971Z,0.80
2018-09-25T16:19:35.563Z,0.73
2018-09-25T16:22:17.200Z,0.83
2018-09-25T16:24:58.769Z,0.70
2018-09-25T16:27:40.368Z,1.00
2018-09-25T16:30:22.076Z,0.80
2018-09-25T16:33:03.641Z,0.70
2018-09-25T16:35:45.225Z,0.67
2018-09-25T16:38:26.963Z,0.53
2018-09-25T16:41:08.757Z,0.80
2018-09-25T16:43:50.365Z,1.90
2018-09-25T16:46:32.104Z,0.60
2018-09-25T16:49:13.776Z,0.77
2018-09-25T16:51:55.367Z,0.80
2018-09-25T16:54:36.825Z,1.07
2018-09-25T16:57:18.532Z,0.77
2018-09-25T17:00:00.013Z,0.83
2018-09-25T17:02:41.923Z,0.90
2018-09-25T17:05:23.548Z,2.40
2018-09-25T17:08:05.206Z,0.87
2018-09-25T17:10:46.943Z,1.20
2018-09-25T17:13:28.543Z,0.80
2018-09-25T17:16:10.249Z,1.10
2018-09-25T17:18:51.948Z,1.40
2018-09-25T17:21:34.613Z,0.60
2018-09-25T17:24:16.203Z,0.80
2018-09-25T17:26:57.786Z,0.60
2018-09-25T17:29:39.377Z,0.77
2018-09-25T17:32:20.942Z,0.93
2018-09-25T17:35:02.509Z,1.00
2018-09-25T17:37:44.261Z,1.53
2018-09-25T17:40:25.948Z,1.17
2018-09-25T17:43:07.479Z,0.93
2018-09-25T17:45:49.189Z,1.10
2018-09-25T17:48:30.783Z,0.97
2018-09-25T17:51:12.467Z,1.40
2018-09-25T17:53:54.053Z,1.00
2018-09-25T17:56:35.726Z,1.40
2018-09-25T17:59:17.663Z,1.90
2018-09-25T18:01:59.405Z,0.93
2018-09-25T18:04:41.284Z,1.03
2018-09-25T18:07:22.959Z,1.50
2018-09-25T18:10:04.603Z,1.10
2018-09-25T18:12:47.650Z,1.70
2018-09-25T18:15:29.674Z,1.70
2018-09-25T18:18:11.392Z,1.83
2018-09-25T18:20:53.071Z,2.37
2018-09-25T18:23:34.789Z,1.50
2018-09-25T18:26:16.878Z,1.87
2018-09-25T18:28:58.484Z,2.13
2018-09-25T18:31:40.235Z,1.40
2018-09-25T18:34:22.161Z,1.93
2018-09-25T18:37:03.942Z,1.93
2018-09-25T18:39:45.511Z,2.27
2018-09-25T18:42:27.472Z,1.73
2018-09-25T18:45:09.171Z,1.53
2018-09-25T18:47:51.781Z,2.43
2018-09-25T18:50:34.237Z,4.23
2018-09-25T18:53:15.743Z,4.20
2018-09-25T18:55:57.431Z,2.83
2018-09-25T18:58:39.030Z,3.13
2018-09-25T19:01:20.544Z,3.00
2018-09-25T19:04:02.294Z,2.60
2018-09-25T19:06:43.803Z,2.80
2018-09-25T19:09:25.351Z,2.57
2018-09-25T19:12:06.946Z,3.17
2018-09-25T19:14:49.292Z,2.70
2018-09-25T19:17:31.011Z,3.17
2018-09-25T19:20:12.685Z,10.80
2018-09-25T19:22:54.310Z,11.97
2018-09-25T19:25:35.909Z,7.03
2018-09-25T19:28:17.681Z,5.33
2018-09-25T19:30:59.312Z,4.50
2018-09-25T19:33:41.089Z,3.37
2018-09-25T19:36:22.670Z,2.80
2018-09-25T19:39:04.476Z,2.10
2018-09-25T19:41:46.118Z,2.20
2018-09-25T19:44:27.715Z,1.80
2018-09-25T19:47:09.431Z,1.77
2018-09-25T19:49:51.086Z,2.57
2018-09-25T19:52:32.674Z,2.70
2018-09-25T19:55:14.257Z,2.23
2018-09-25T19:57:55.843Z,2.17
2018-09-25T20:00:37.402Z,3.03
2018-09-25T20:03:19.099Z,1.70
2018-09-25T20:06:07.803Z,2.40
2018-09-25T20:08:50.199Z,2.17
2018-09-25T20:11:31.746Z,2.30
2018-09-25T20:14:13.822Z,1.90
2018-09-25T20:16:55.456Z,2.30
2018-09-25T20:19:37.260Z,1.50
2018-09-25T20:22:18.791Z,2.10
2018-09-25T20:25:00.258Z,2.33
2018-09-25T20:27:41.765Z,2.00
2018-09-25T20:30:23.344Z,2.03
2018-09-25T20:33:04.893Z,1.87
2018-09-25T20:35:46.396Z,2.00
2018-09-25T20:38:27.834Z,2.57
2018-09-25T20:41:09.441Z,2.07
2018-09-25T20:43:51.645Z,1.40
2018-09-25T20:46:33.188Z,1.70
2018-09-25T20:49:15.012Z,1.83
2018-09-25T20:51:56.614Z,1.90
2018-09-25T20:54:38.094Z,1.73
2018-09-25T20:57:19.782Z,2.23
2018-09-25T21:00:01.279Z,2.10
2018-09-25T21:02:42.996Z,2.10
2018-09-25T21:05:24.666Z,1.97
2018-09-25T21:08:06.234Z,2.10
2018-09-25T21:10:47.819Z,1.73
2018-09-25T21:13:29.422Z,2.10
2018-09-25T21:16:10.971Z,1.90
2018-09-25T21:18:52.571Z,2.13
2018-09-25T21:21:34.155Z,2.30
2018-09-25T21:24:15.759Z,2.03
2018-09-25T21:26:57.353Z,2.00
2018-09-25T21:29:39.118Z,2.07
2018-09-25T21:32:20.900Z,1.87
2018-09-25T21:35:02.497Z,2.83
2018-09-25T21:37:43.965Z,2.20
2018-09-25T21:40:25.694Z,2.10
2018-09-25T21:43:07.467Z,2.43
2018-09-25T21:45:49.122Z,1.90
2018-09-25T21:48:31.026Z,2.00
2018-09-25T21:51:13.046Z,2.67
2018-09-25T21:53:54.418Z,2.30
2018-09-25T21:56:36.036Z,3.00
2018-09-25T21:59:17.726Z,2.03
2018-09-25T22:02:02.486Z,2.50
2018-09-25T22:04:44.204Z,2.17
2018-09-25T22:07:25.652Z,1.77
2018-09-25T22:10:07.083Z,1.93
2018-09-25T22:12:48.560Z,2.27
2018-09-25T22:15:30.746Z,1.80
2018-09-25T22:18:12.328Z,1.87
2018-09-25T22:20:53.925Z,2.10
2018-09-25T22:23:35.482Z,2.00
2018-09-25T22:26:17.340Z,1.60
2018-09-25T22:28:58.880Z,1.43
2018-09-25T22:31:40.475Z,1.40
2018-09-25T22:34:22.058Z,2.20
2018-09-25T22:37:03.617Z,1.87
2018-09-25T22:39:45.233Z,2.30
2018-09-25T22:42:26.789Z,1.50
2018-09-25T22:45:08.340Z,2.40
2018-09-25T22:47:50.446Z,1.80
2018-09-25T22:50:32.010Z,1.30
2018-09-25T22:53:13.630Z,2.03
2018-09-25T22:55:55.143Z,1.63
2018-09-25T22:58:36.763Z,1.20
2018-09-25T23:01:18.413Z,1.27
2018-09-25T23:04:00.114Z,1.87
2018-09-25T23:06:41.590Z,2.00
2018-09-25T23:09:23.407Z,1.93
2018-09-25T23:12:04.762Z,1.67
2018-09-25T23:14:46.414Z,2.30
2018-09-25T23:17:27.909Z,1.93
2018-09-25T23:20:09.541Z,1.90
2018-09-25T23:22:51.168Z,1.87
2018-09-25T23:25:32.873Z,1.63
2018-09-25T23:28:14.421Z,1.60
2018-09-25T23:30:56.272Z,1.80
2018-09-25T23:33:37.911Z,1.40
2018-09-25T23:36:19.608Z,1.83
2018-09-25T23:39:09.724Z,1.97
2018-09-25T23:41:51.297Z,1.83
2018-09-25T23:44:32.600Z,1.50
2018-09-25T23:47:27.905Z,1.80
2018-09-25T23:50:11.660Z,2.00
2018-09-25T23:52:54.918Z,1.60
2018-09-25T23:56:07.774Z,1.80
2018-09-25T23:58:49.368Z,1.43
